sensor_id;sensor_type;location;lat;lon;timestamp;temperature;humidity
4103;DHT22;2065;49.790;9.620;2023-05-31T00:02:22;20.70;37.80
4103;DHT22;2065;49.790;9.620;2023-05-31T00:04:49;20.80;37.90
4103;DHT22;2065;49.790;9.620;2023-05-31T00:07:16;20.80;38.10
4103;DHT22;2065;49.790;9.620;2023-05-31T00:09:43;20.80;38.20
4103;DHT22;2065;49.790;9.620;2023-05-31T00:12:11;20.80;38.20
4103;DHT22;2065;49.790;9.620;2023-05-31T00:14:38;20.70;38.30
4103;DHT22;2065;49.790;9.620;2023-05-31T00:17:05;20.60;38.40
4103;DHT22;2065;49.790;9.620;2023-05-31T00:19:32;20.60;38.80
4103;DHT22;2065;49.790;9.620;2023-05-31T00:21:59;20.60;38.60
4103;DHT22;2065;49.790;9.620;2023-05-31T00:24:26;20.50;38.20
4103;DHT22;2065;49.790;9.620;2023-05-31T00:26:53;20.50;38.40
4103;DHT22;2065;49.790;9.620;2023-05-31T00:29:21;20.50;38.90
4103;DHT22;2065;49.790;9.620;2023-05-31T00:31:48;20.30;38.80
4103;DHT22;2065;49.790;9.620;2023-05-31T00:34:15;20.00;39.70
4103;DHT22;2065;49.790;9.620;2023-05-31T00:36:42;20.10;40.00
4103;DHT22;2065;49.790;9.620;2023-05-31T00:39:09;20.10;39.50
4103;DHT22;2065;49.790;9.620;2023-05-31T00:41:36;20.10;38.90
4103;DHT22;2065;49.790;9.620;2023-05-31T00:44:03;20.10;38.70
4103;DHT22;2065;49.790;9.620;2023-05-31T00:46:34;20.00;38.50
4103;DHT22;2065;49.790;9.620;2023-05-31T00:49:03;19.90;38.70
4103;DHT22;2065;49.790;9.620;2023-05-31T00:51:31;19.90;39.80
4103;DHT22;2065;49.790;9.620;2023-05-31T00:53:59;19.90;39.40
4103;DHT22;2065;49.790;9.620;2023-05-31T00:56:26;19.90;40.00
4103;DHT22;2065;49.790;9.620;2023-05-31T00:58:54;19.80;40.00
4103;DHT22;2065;49.790;9.620;2023-05-31T01:01:23;19.60;41.20
4103;DHT22;2065;49.790;9.620;2023-05-31T01:03:53;19.50;41.20
4103;DHT22;2065;49.790;9.620;2023-05-31T01:06:20;19.50;41.10
4103;DHT22;2065;49.790;9.620;2023-05-31T01:08:51;19.50;41.20
4103;DHT22;2065;49.790;9.620;2023-05-31T01:11:29;19.40;41.20
4103;DHT22;2065;49.790;9.620;2023-05-31T01:14:04;19.40;41.10
4103;DHT22;2065;49.790;9.620;2023-05-31T01:16:39;19.40;41.00
4103;DHT22;2065;49.790;9.620;2023-05-31T01:19:15;19.50;40.90
4103;DHT22;2065;49.790;9.620;2023-05-31T01:21:51;19.50;40.70
4103;DHT22;2065;49.790;9.620;2023-05-31T01:24:26;19.50;40.90
4103;DHT22;2065;49.790;9.620;2023-05-31T01:27:00;19.50;41.10
4103;DHT22;2065;49.790;9.620;2023-05-31T01:29:28;19.50;40.90
4103;DHT22;2065;49.790;9.620;2023-05-31T01:31:58;19.50;41.10
4103;DHT22;2065;49.790;9.620;2023-05-31T01:34:27;19.50;41.00
4103;DHT22;2065;49.790;9.620;2023-05-31T01:36:54;19.50;40.90
4103;DHT22;2065;49.790;9.620;2023-05-31T01:39:21;19.50;41.00
4103;DHT22;2065;49.790;9.620;2023-05-31T01:41:50;19.50;40.80
4103;DHT22;2065;49.790;9.620;2023-05-31T01:44:19;19.40;41.20
4103;DHT22;2065;49.790;9.620;2023-05-31T01:46:46;19.40;40.90
4103;DHT22;2065;49.790;9.620;2023-05-31T01:49:15;19.40;41.30
4103;DHT22;2065;49.790;9.620;2023-05-31T01:51:43;19.40;41.10
4103;DHT22;2065;49.790;9.620;2023-05-31T01:54:13;19.30;41.10
4103;DHT22;2065;49.790;9.620;2023-05-31T01:56:42;19.30;40.80
4103;DHT22;2065;49.790;9.620;2023-05-31T01:59:10;19.30;40.40
4103;DHT22;2065;49.790;9.620;2023-05-31T02:01:39;19.30;40.70
4103;DHT22;2065;49.790;9.620;2023-05-31T02:04:07;19.20;41.10
4103;DHT22;2065;49.790;9.620;2023-05-31T02:06:35;19.20;41.60
4103;DHT22;2065;49.790;9.620;2023-05-31T02:09:03;19.20;41.70
4103;DHT22;2065;49.790;9.620;2023-05-31T02:11:30;19.10;41.40
4103;DHT22;2065;49.790;9.620;2023-05-31T02:13:57;19.00;41.60
4103;DHT22;2065;49.790;9.620;2023-05-31T02:16:23;19.10;41.90
4103;DHT22;2065;49.790;9.620;2023-05-31T02:18:52;19.00;41.80
4103;DHT22;2065;49.790;9.620;2023-05-31T02:21:22;19.00;42.00
4103;DHT22;2065;49.790;9.620;2023-05-31T02:23:49;19.00;42.10
4103;DHT22;2065;49.790;9.620;2023-05-31T02:26:17;18.90;42.10
4103;DHT22;2065;49.790;9.620;2023-05-31T02:28:44;19.00;42.40
4103;DHT22;2065;49.790;9.620;2023-05-31T02:31:11;19.00;42.30
4103;DHT22;2065;49.790;9.620;2023-05-31T02:33:40;18.90;42.30
4103;DHT22;2065;49.790;9.620;2023-05-31T02:36:09;18.90;42.20
4103;DHT22;2065;49.790;9.620;2023-05-31T02:38:37;18.90;42.60
4103;DHT22;2065;49.790;9.620;2023-05-31T02:41:04;18.80;42.90
4103;DHT22;2065;49.790;9.620;2023-05-31T02:43:30;18.80;42.90
4103;DHT22;2065;49.790;9.620;2023-05-31T02:45:58;18.80;43.10
4103;DHT22;2065;49.790;9.620;2023-05-31T02:48:27;18.80;42.90
4103;DHT22;2065;49.790;9.620;2023-05-31T02:50:55;18.70;43.00
4103;DHT22;2065;49.790;9.620;2023-05-31T02:53:35;18.70;43.10
4103;DHT22;2065;49.790;9.620;2023-05-31T02:56:13;18.50;43.90
4103;DHT22;2065;49.790;9.620;2023-05-31T02:58:48;18.50;43.90
4103;DHT22;2065;49.790;9.620;2023-05-31T03:01:27;18.20;44.10
4103;DHT22;2065;49.790;9.620;2023-05-31T03:04:10;18.10;43.70
4103;DHT22;2065;49.790;9.620;2023-05-31T03:06:37;18.10;44.00
4103;DHT22;2065;49.790;9.620;2023-05-31T03:09:07;18.00;44.50
4103;DHT22;2065;49.790;9.620;2023-05-31T03:11:35;18.00;44.30
4103;DHT22;2065;49.790;9.620;2023-05-31T03:14:02;18.10;44.60
4103;DHT22;2065;49.790;9.620;2023-05-31T03:16:43;18.10;44.90
4103;DHT22;2065;49.790;9.620;2023-05-31T03:19:11;17.90;44.90
4103;DHT22;2065;49.790;9.620;2023-05-31T03:21:40;17.60;45.50
4103;DHT22;2065;49.790;9.620;2023-05-31T03:24:08;17.50;46.00
4103;DHT22;2065;49.790;9.620;2023-05-31T03:26:36;17.50;45.90
4103;DHT22;2065;49.790;9.620;2023-05-31T03:29:03;17.60;45.90
4103;DHT22;2065;49.790;9.620;2023-05-31T03:31:30;17.70;45.80
4103;DHT22;2065;49.790;9.620;2023-05-31T03:33:58;17.90;45.40
4103;DHT22;2065;49.790;9.620;2023-05-31T03:36:25;17.90;45.20
4103;DHT22;2065;49.790;9.620;2023-05-31T03:38:52;18.00;45.40
4103;DHT22;2065;49.790;9.620;2023-05-31T03:41:21;18.00;45.20
4103;DHT22;2065;49.790;9.620;2023-05-31T03:43:48;18.00;45.10
4103;DHT22;2065;49.790;9.620;2023-05-31T03:46:17;18.00;45.10
4103;DHT22;2065;49.790;9.620;2023-05-31T03:48:44;18.00;44.90
4103;DHT22;2065;49.790;9.620;2023-05-31T03:51:12;18.00;45.30
4103;DHT22;2065;49.790;9.620;2023-05-31T03:53:39;18.00;44.90
4103;DHT22;2065;49.790;9.620;2023-05-31T03:56:06;17.90;45.60
4103;DHT22;2065;49.790;9.620;2023-05-31T03:58:34;17.90;45.40
4103;DHT22;2065;49.790;9.620;2023-05-31T04:01:01;17.90;45.80
4103;DHT22;2065;49.790;9.620;2023-05-31T04:03:29;17.90;45.90
4103;DHT22;2065;49.790;9.620;2023-05-31T04:05:55;17.90;46.30
4103;DHT22;2065;49.790;9.620;2023-05-31T04:08:22;17.90;46.20
4103;DHT22;2065;49.790;9.620;2023-05-31T04:10:49;17.90;46.00
4103;DHT22;2065;49.790;9.620;2023-05-31T04:13:17;17.90;47.00
4103;DHT22;2065;49.790;9.620;2023-05-31T04:15:46;17.90;46.70
4103;DHT22;2065;49.790;9.620;2023-05-31T04:18:13;18.00;46.40
4103;DHT22;2065;49.790;9.620;2023-05-31T04:20:40;18.00;46.60
4103;DHT22;2065;49.790;9.620;2023-05-31T04:23:07;18.00;46.70
4103;DHT22;2065;49.790;9.620;2023-05-31T04:25:34;18.00;46.50
4103;DHT22;2065;49.790;9.620;2023-05-31T04:28:01;18.00;46.50
4103;DHT22;2065;49.790;9.620;2023-05-31T04:30:31;18.00;46.50
4103;DHT22;2065;49.790;9.620;2023-05-31T04:33:00;18.10;46.60
4103;DHT22;2065;49.790;9.620;2023-05-31T04:35:31;18.10;46.40
4103;DHT22;2065;49.790;9.620;2023-05-31T04:37:59;18.10;46.80
4103;DHT22;2065;49.790;9.620;2023-05-31T04:40:28;18.10;47.00
4103;DHT22;2065;49.790;9.620;2023-05-31T04:42:58;18.10;46.70
4103;DHT22;2065;49.790;9.620;2023-05-31T04:45:28;18.10;46.70
4103;DHT22;2065;49.790;9.620;2023-05-31T04:47:56;18.10;46.70
4103;DHT22;2065;49.790;9.620;2023-05-31T04:50:25;18.10;46.80
4103;DHT22;2065;49.790;9.620;2023-05-31T04:52:52;18.10;46.70
4103;DHT22;2065;49.790;9.620;2023-05-31T04:55:20;18.20;46.50
4103;DHT22;2065;49.790;9.620;2023-05-31T04:57:47;18.20;46.90
4103;DHT22;2065;49.790;9.620;2023-05-31T05:00:15;18.20;46.60
4103;DHT22;2065;49.790;9.620;2023-05-31T05:03:02;18.20;46.60
4103;DHT22;2065;49.790;9.620;2023-05-31T05:05:32;18.30;46.90
4103;DHT22;2065;49.790;9.620;2023-05-31T05:07:58;18.30;46.80
4103;DHT22;2065;49.790;9.620;2023-05-31T05:10:26;18.30;47.00
4103;DHT22;2065;49.790;9.620;2023-05-31T05:12:54;18.30;47.00
4103;DHT22;2065;49.790;9.620;2023-05-31T05:15:21;18.30;47.30
4103;DHT22;2065;49.790;9.620;2023-05-31T05:17:48;18.40;47.30
4103;DHT22;2065;49.790;9.620;2023-05-31T05:20:15;18.40;47.50
4103;DHT22;2065;49.790;9.620;2023-05-31T05:22:51;18.40;47.50
4103;DHT22;2065;49.790;9.620;2023-05-31T05:25:19;18.50;47.50
4103;DHT22;2065;49.790;9.620;2023-05-31T05:27:47;18.50;47.60
4103;DHT22;2065;49.790;9.620;2023-05-31T05:30:14;18.60;48.00
4103;DHT22;2065;49.790;9.620;2023-05-31T05:32:42;18.60;47.70
4103;DHT22;2065;49.790;9.620;2023-05-31T05:35:10;18.70;47.60
4103;DHT22;2065;49.790;9.620;2023-05-31T05:37:36;18.80;47.10
4103;DHT22;2065;49.790;9.620;2023-05-31T05:40:06;18.80;47.20
4103;DHT22;2065;49.790;9.620;2023-05-31T05:42:33;18.90;46.90
4103;DHT22;2065;49.790;9.620;2023-05-31T05:45:04;19.00;47.90
4103;DHT22;2065;49.790;9.620;2023-05-31T05:47:33;19.10;48.20
4103;DHT22;2065;49.790;9.620;2023-05-31T05:50:00;19.20;48.30
4103;DHT22;2065;49.790;9.620;2023-05-31T05:52:27;19.40;48.00
4103;DHT22;2065;49.790;9.620;2023-05-31T05:54:55;19.60;47.50
4103;DHT22;2065;49.790;9.620;2023-05-31T05:57:23;19.80;47.70
4103;DHT22;2065;49.790;9.620;2023-05-31T05:59:56;20.00;46.90
4103;DHT22;2065;49.790;9.620;2023-05-31T06:02:23;20.20;46.70
4103;DHT22;2065;49.790;9.620;2023-05-31T06:04:53;20.30;46.40
4103;DHT22;2065;49.790;9.620;2023-05-31T06:07:23;20.40;45.40
4103;DHT22;2065;49.790;9.620;2023-05-31T06:09:50;20.60;45.70
4103;DHT22;2065;49.790;9.620;2023-05-31T06:12:20;20.60;44.90
4103;DHT22;2065;49.790;9.620;2023-05-31T06:14:48;20.70;43.40
4103;DHT22;2065;49.790;9.620;2023-05-31T06:17:15;20.80;43.20
4103;DHT22;2065;49.790;9.620;2023-05-31T06:19:42;20.90;44.80
4103;DHT22;2065;49.790;9.620;2023-05-31T06:22:09;20.80;43.10
4103;DHT22;2065;49.790;9.620;2023-05-31T06:24:37;20.80;41.40
4103;DHT22;2065;49.790;9.620;2023-05-31T06:27:04;20.80;42.40
4103;DHT22;2065;49.790;9.620;2023-05-31T06:29:36;20.90;41.80
4103;DHT22;2065;49.790;9.620;2023-05-31T06:32:15;21.10;42.50
4103;DHT22;2065;49.790;9.620;2023-05-31T06:34:45;21.10;41.50
4103;DHT22;2065;49.790;9.620;2023-05-31T06:37:12;21.00;39.70
4103;DHT22;2065;49.790;9.620;2023-05-31T06:39:39;20.90;40.10
4103;DHT22;2065;49.790;9.620;2023-05-31T06:42:07;21.00;40.60
4103;DHT22;2065;49.790;9.620;2023-05-31T06:44:53;21.30;41.10
4103;DHT22;2065;49.790;9.620;2023-05-31T06:47:48;21.70;41.10
4103;DHT22;2065;49.790;9.620;2023-05-31T06:50:15;21.90;39.20
4103;DHT22;2065;49.790;9.620;2023-05-31T06:52:45;21.80;38.60
4103;DHT22;2065;49.790;9.620;2023-05-31T06:55:35;21.90;37.70
4103;DHT22;2065;49.790;9.620;2023-05-31T06:58:03;22.00;37.30
4103;DHT22;2065;49.790;9.620;2023-05-31T07:00:32;22.00;37.50
4103;DHT22;2065;49.790;9.620;2023-05-31T07:03:01;22.40;37.50
4103;DHT22;2065;49.790;9.620;2023-05-31T07:05:28;22.30;38.00
4103;DHT22;2065;49.790;9.620;2023-05-31T07:07:56;22.30;36.20
4103;DHT22;2065;49.790;9.620;2023-05-31T07:10:23;22.40;37.00
4103;DHT22;2065;49.790;9.620;2023-05-31T07:12:52;22.70;37.00
4103;DHT22;2065;49.790;9.620;2023-05-31T07:15:19;22.80;36.70
4103;DHT22;2065;49.790;9.620;2023-05-31T07:17:46;22.90;35.40
4103;DHT22;2065;49.790;9.620;2023-05-31T07:20:15;23.00;34.50
4103;DHT22;2065;49.790;9.620;2023-05-31T07:22:42;23.00;34.90
4103;DHT22;2065;49.790;9.620;2023-05-31T07:25:09;23.10;35.60
4103;DHT22;2065;49.790;9.620;2023-05-31T07:27:36;23.20;35.30
4103;DHT22;2065;49.790;9.620;2023-05-31T07:30:03;23.30;34.80
4103;DHT22;2065;49.790;9.620;2023-05-31T07:32:31;23.50;33.90
4103;DHT22;2065;49.790;9.620;2023-05-31T07:34:58;23.50;34.60
4103;DHT22;2065;49.790;9.620;2023-05-31T07:37:26;23.60;33.60
4103;DHT22;2065;49.790;9.620;2023-05-31T07:39:53;23.80;33.80
4103;DHT22;2065;49.790;9.620;2023-05-31T07:42:20;23.80;32.90
4103;DHT22;2065;49.790;9.620;2023-05-31T07:44:47;23.60;33.10
4103;DHT22;2065;49.790;9.620;2023-05-31T07:47:15;23.70;34.40
4103;DHT22;2065;49.790;9.620;2023-05-31T07:49:42;23.80;32.30
4103;DHT22;2065;49.790;9.620;2023-05-31T07:52:09;23.80;31.20
4103;DHT22;2065;49.790;9.620;2023-05-31T07:54:37;24.00;31.90
4103;DHT22;2065;49.790;9.620;2023-05-31T07:57:04;24.10;31.90
4103;DHT22;2065;49.790;9.620;2023-05-31T07:59:31;24.10;32.00
4103;DHT22;2065;49.790;9.620;2023-05-31T08:01:58;24.30;31.80
4103;DHT22;2065;49.790;9.620;2023-05-31T08:04:25;24.60;32.00
4103;DHT22;2065;49.790;9.620;2023-05-31T08:06:52;24.70;31.30
4103;DHT22;2065;49.790;9.620;2023-05-31T08:09:19;24.70;31.50
4103;DHT22;2065;49.790;9.620;2023-05-31T08:11:47;24.70;32.00
4103;DHT22;2065;49.790;9.620;2023-05-31T08:14:14;24.80;31.60
4103;DHT22;2065;49.790;9.620;2023-05-31T08:16:41;24.60;29.90
4103;DHT22;2065;49.790;9.620;2023-05-31T08:19:08;24.60;31.00
4103;DHT22;2065;49.790;9.620;2023-05-31T08:21:35;24.80;30.50
4103;DHT22;2065;49.790;9.620;2023-05-31T08:24:03;24.40;30.50
4103;DHT22;2065;49.790;9.620;2023-05-31T08:26:31;24.60;31.10
4103;DHT22;2065;49.790;9.620;2023-05-31T08:28:59;24.70;30.80
4103;DHT22;2065;49.790;9.620;2023-05-31T08:31:27;24.80;30.80
4103;DHT22;2065;49.790;9.620;2023-05-31T08:33:54;25.00;31.00
4103;DHT22;2065;49.790;9.620;2023-05-31T08:36:22;25.20;32.00
4103;DHT22;2065;49.790;9.620;2023-05-31T08:38:49;25.40;31.00
4103;DHT22;2065;49.790;9.620;2023-05-31T08:41:17;25.40;30.20
4103;DHT22;2065;49.790;9.620;2023-05-31T08:43:45;25.50;30.00
4103;DHT22;2065;49.790;9.620;2023-05-31T08:46:15;25.60;29.90
4103;DHT22;2065;49.790;9.620;2023-05-31T08:48:45;25.70;29.30
4103;DHT22;2065;49.790;9.620;2023-05-31T08:51:16;26.00;30.00
4103;DHT22;2065;49.790;9.620;2023-05-31T08:53:43;26.00;30.10
4103;DHT22;2065;49.790;9.620;2023-05-31T08:56:11;26.10;28.40
4103;DHT22;2065;49.790;9.620;2023-05-31T08:58:42;26.30;29.10
4103;DHT22;2065;49.790;9.620;2023-05-31T09:01:10;26.00;28.10
4103;DHT22;2065;49.790;9.620;2023-05-31T09:03:40;26.00;28.40
4103;DHT22;2065;49.790;9.620;2023-05-31T09:06:08;26.10;29.70
4103;DHT22;2065;49.790;9.620;2023-05-31T09:08:35;26.20;28.30
4103;DHT22;2065;49.790;9.620;2023-05-31T09:11:05;26.20;28.20
4103;DHT22;2065;49.790;9.620;2023-05-31T09:13:33;26.40;27.70
4103;DHT22;2065;49.790;9.620;2023-05-31T09:16:00;26.50;28.70
4103;DHT22;2065;49.790;9.620;2023-05-31T09:18:35;26.70;27.30
4103;DHT22;2065;49.790;9.620;2023-05-31T09:21:08;26.90;27.20
4103;DHT22;2065;49.790;9.620;2023-05-31T09:23:36;26.80;27.00
4103;DHT22;2065;49.790;9.620;2023-05-31T09:26:06;26.70;26.90
4103;DHT22;2065;49.790;9.620;2023-05-31T09:28:33;26.60;28.00
4103;DHT22;2065;49.790;9.620;2023-05-31T09:31:02;26.90;27.20
4103;DHT22;2065;49.790;9.620;2023-05-31T09:33:40;26.80;27.10
4103;DHT22;2065;49.790;9.620;2023-05-31T09:36:10;26.90;27.10
4103;DHT22;2065;49.790;9.620;2023-05-31T09:38:39;26.90;26.40
4103;DHT22;2065;49.790;9.620;2023-05-31T09:41:14;27.00;25.90
4103;DHT22;2065;49.790;9.620;2023-05-31T09:43:42;27.40;25.60
4103;DHT22;2065;49.790;9.620;2023-05-31T09:46:13;27.50;26.40
4103;DHT22;2065;49.790;9.620;2023-05-31T09:48:40;27.70;25.60
4103;DHT22;2065;49.790;9.620;2023-05-31T09:51:09;28.00;25.50
4103;DHT22;2065;49.790;9.620;2023-05-31T09:53:39;28.20;24.90
4103;DHT22;2065;49.790;9.620;2023-05-31T09:56:09;28.40;24.30
4103;DHT22;2065;49.790;9.620;2023-05-31T09:58:37;28.40;25.10
4103;DHT22;2065;49.790;9.620;2023-05-31T10:01:04;28.20;24.40
4103;DHT22;2065;49.790;9.620;2023-05-31T10:03:32;28.40;25.30
4103;DHT22;2065;49.790;9.620;2023-05-31T10:06:00;28.20;23.40
4103;DHT22;2065;49.790;9.620;2023-05-31T10:08:29;28.10;23.90
4103;DHT22;2065;49.790;9.620;2023-05-31T10:10:58;28.20;23.90
4103;DHT22;2065;49.790;9.620;2023-05-31T10:13:27;28.60;23.20
4103;DHT22;2065;49.790;9.620;2023-05-31T10:15:55;28.60;23.90
4103;DHT22;2065;49.790;9.620;2023-05-31T10:18:27;28.80;24.30
4103;DHT22;2065;49.790;9.620;2023-05-31T10:20:59;29.00;22.60
4103;DHT22;2065;49.790;9.620;2023-05-31T10:23:29;28.80;23.20
4103;DHT22;2065;49.790;9.620;2023-05-31T10:26:04;28.90;24.90
4103;DHT22;2065;49.790;9.620;2023-05-31T10:28:37;29.10;23.50
4103;DHT22;2065;49.790;9.620;2023-05-31T10:31:07;29.00;23.20
4103;DHT22;2065;49.790;9.620;2023-05-31T10:33:37;29.10;24.20
4103;DHT22;2065;49.790;9.620;2023-05-31T10:36:06;29.20;24.00
4103;DHT22;2065;49.790;9.620;2023-05-31T10:38:41;29.60;22.70
4103;DHT22;2065;49.790;9.620;2023-05-31T10:41:16;29.40;23.60
4103;DHT22;2065;49.790;9.620;2023-05-31T10:43:48;29.60;21.30
4103;DHT22;2065;49.790;9.620;2023-05-31T10:46:20;29.40;21.80
4103;DHT22;2065;49.790;9.620;2023-05-31T10:48:53;29.00;22.40
4103;DHT22;2065;49.790;9.620;2023-05-31T10:51:37;29.00;23.60
4103;DHT22;2065;49.790;9.620;2023-05-31T10:54:06;29.50;23.00
4103;DHT22;2065;49.790;9.620;2023-05-31T10:56:36;30.00;23.10
4103;DHT22;2065;49.790;9.620;2023-05-31T10:59:04;30.00;22.50
4103;DHT22;2065;49.790;9.620;2023-05-31T11:01:31;29.90;22.10
4103;DHT22;2065;49.790;9.620;2023-05-31T11:04:02;30.00;23.60
4103;DHT22;2065;49.790;9.620;2023-05-31T11:06:44;29.90;22.50
4103;DHT22;2065;49.790;9.620;2023-05-31T11:09:13;29.80;22.30
4103;DHT22;2065;49.790;9.620;2023-05-31T11:11:45;29.90;22.10
4103;DHT22;2065;49.790;9.620;2023-05-31T11:14:31;29.80;22.10
4103;DHT22;2065;49.790;9.620;2023-05-31T11:17:15;29.80;23.50
4103;DHT22;2065;49.790;9.620;2023-05-31T11:19:43;30.00;23.00
4103;DHT22;2065;49.790;9.620;2023-05-31T11:22:22;29.40;22.10
4103;DHT22;2065;49.790;9.620;2023-05-31T11:24:53;29.10;22.30
4103;DHT22;2065;49.790;9.620;2023-05-31T11:27:21;29.20;22.60
4103;DHT22;2065;49.790;9.620;2023-05-31T11:29:58;29.50;23.20
4103;DHT22;2065;49.790;9.620;2023-05-31T11:32:56;29.50;23.00
4103;DHT22;2065;49.790;9.620;2023-05-31T11:35:24;29.80;22.70
4103;DHT22;2065;49.790;9.620;2023-05-31T11:38:03;30.10;22.30
4103;DHT22;2065;49.790;9.620;2023-05-31T11:40:33;30.20;21.70
4103;DHT22;2065;49.790;9.620;2023-05-31T11:43:06;30.30;21.70
4103;DHT22;2065;49.790;9.620;2023-05-31T11:45:34;30.10;20.90
4103;DHT22;2065;49.790;9.620;2023-05-31T11:48:14;30.20;21.50
4103;DHT22;2065;49.790;9.620;2023-05-31T11:50:43;30.50;23.00
4103;DHT22;2065;49.790;9.620;2023-05-31T11:53:10;30.70;21.00
4103;DHT22;2065;49.790;9.620;2023-05-31T11:55:44;30.60;20.30
4103;DHT22;2065;49.790;9.620;2023-05-31T11:58:13;30.50;20.90
4103;DHT22;2065;49.790;9.620;2023-05-31T12:00:43;30.70;20.80
4103;DHT22;2065;49.790;9.620;2023-05-31T12:03:14;30.90;20.70
4103;DHT22;2065;49.790;9.620;2023-05-31T12:05:44;31.20;20.80
4103;DHT22;2065;49.790;9.620;2023-05-31T12:08:16;31.00;20.70
4103;DHT22;2065;49.790;9.620;2023-05-31T12:10:44;31.10;21.80
4103;DHT22;2065;49.790;9.620;2023-05-31T12:13:15;30.70;21.20
4103;DHT22;2065;49.790;9.620;2023-05-31T12:15:42;30.70;21.80
4103;DHT22;2065;49.790;9.620;2023-05-31T12:18:09;31.00;21.10
4103;DHT22;2065;49.790;9.620;2023-05-31T12:20:42;31.00;20.20
4103;DHT22;2065;49.790;9.620;2023-05-31T12:23:10;30.70;20.80
4103;DHT22;2065;49.790;9.620;2023-05-31T12:25:42;31.00;21.70
4103;DHT22;2065;49.790;9.620;2023-05-31T12:28:11;31.30;21.10
4103;DHT22;2065;49.790;9.620;2023-05-31T12:30:45;31.10;19.70
4103;DHT22;2065;49.790;9.620;2023-05-31T12:33:13;31.10;20.40
4103;DHT22;2065;49.790;9.620;2023-05-31T12:35:41;31.40;21.40
4103;DHT22;2065;49.790;9.620;2023-05-31T12:38:08;31.90;20.60
4103;DHT22;2065;49.790;9.620;2023-05-31T12:40:38;31.70;19.80
4103;DHT22;2065;49.790;9.620;2023-05-31T12:43:07;31.60;20.70
4103;DHT22;2065;49.790;9.620;2023-05-31T12:45:40;31.80;19.40
4103;DHT22;2065;49.790;9.620;2023-05-31T12:48:08;32.00;19.60
4103;DHT22;2065;49.790;9.620;2023-05-31T12:50:37;32.20;20.20
4103;DHT22;2065;49.790;9.620;2023-05-31T12:53:09;32.20;19.80
4103;DHT22;2065;49.790;9.620;2023-05-31T12:55:36;32.20;19.80
4103;DHT22;2065;49.790;9.620;2023-05-31T12:58:03;31.70;19.90
4103;DHT22;2065;49.790;9.620;2023-05-31T13:00:30;31.90;19.90
4103;DHT22;2065;49.790;9.620;2023-05-31T13:02:58;32.10;19.70
4103;DHT22;2065;49.790;9.620;2023-05-31T13:05:25;31.80;19.30
4103;DHT22;2065;49.790;9.620;2023-05-31T13:07:52;31.70;19.50
4103;DHT22;2065;49.790;9.620;2023-05-31T13:10:20;31.80;20.10
4103;DHT22;2065;49.790;9.620;2023-05-31T13:12:46;32.00;19.70
4103;DHT22;2065;49.790;9.620;2023-05-31T13:15:14;32.20;19.40
4103;DHT22;2065;49.790;9.620;2023-05-31T13:17:40;32.20;19.60
4103;DHT22;2065;49.790;9.620;2023-05-31T13:20:10;32.30;19.70
4103;DHT22;2065;49.790;9.620;2023-05-31T13:22:37;32.50;18.90
4103;DHT22;2065;49.790;9.620;2023-05-31T13:25:05;32.50;19.70
4103;DHT22;2065;49.790;9.620;2023-05-31T13:27:32;32.40;19.70
4103;DHT22;2065;49.790;9.620;2023-05-31T13:30:00;32.60;19.70
4103;DHT22;2065;49.790;9.620;2023-05-31T13:32:26;32.80;19.80
4103;DHT22;2065;49.790;9.620;2023-05-31T13:34:53;32.60;19.00
4103;DHT22;2065;49.790;9.620;2023-05-31T13:37:22;32.30;19.30
4103;DHT22;2065;49.790;9.620;2023-05-31T13:39:49;32.20;20.10
4103;DHT22;2065;49.790;9.620;2023-05-31T13:42:15;32.10;19.80
4103;DHT22;2065;49.790;9.620;2023-05-31T13:44:42;31.80;19.70
4103;DHT22;2065;49.790;9.620;2023-05-31T13:47:09;31.70;19.90
4103;DHT22;2065;49.790;9.620;2023-05-31T13:49:36;31.60;19.60
4103;DHT22;2065;49.790;9.620;2023-05-31T13:52:04;32.00;19.80
4103;DHT22;2065;49.790;9.620;2023-05-31T13:54:34;32.30;18.80
4103;DHT22;2065;49.790;9.620;2023-05-31T13:57:01;32.20;18.90
4103;DHT22;2065;49.790;9.620;2023-05-31T13:59:29;32.20;19.60
4103;DHT22;2065;49.790;9.620;2023-05-31T14:01:56;32.60;18.80
4103;DHT22;2065;49.790;9.620;2023-05-31T14:04:23;32.40;18.50
4103;DHT22;2065;49.790;9.620;2023-05-31T14:06:50;32.20;18.30
4103;DHT22;2065;49.790;9.620;2023-05-31T14:09:17;31.90;19.30
4103;DHT22;2065;49.790;9.620;2023-05-31T14:11:45;31.80;19.30
4103;DHT22;2065;49.790;9.620;2023-05-31T14:14:12;32.00;19.50
4103;DHT22;2065;49.790;9.620;2023-05-31T14:16:40;32.20;19.60
4103;DHT22;2065;49.790;9.620;2023-05-31T14:19:07;32.30;19.40
4103;DHT22;2065;49.790;9.620;2023-05-31T14:21:34;32.70;18.70
4103;DHT22;2065;49.790;9.620;2023-05-31T14:24:00;32.70;18.00
4103;DHT22;2065;49.790;9.620;2023-05-31T14:26:28;32.30;18.60
4103;DHT22;2065;49.790;9.620;2023-05-31T14:28:57;32.30;19.00
4103;DHT22;2065;49.790;9.620;2023-05-31T14:31:23;32.40;18.70
4103;DHT22;2065;49.790;9.620;2023-05-31T14:33:50;32.60;18.50
4103;DHT22;2065;49.790;9.620;2023-05-31T14:36:17;32.30;18.60
4103;DHT22;2065;49.790;9.620;2023-05-31T14:38:44;32.20;18.70
4103;DHT22;2065;49.790;9.620;2023-05-31T14:41:11;32.30;19.60
4103;DHT22;2065;49.790;9.620;2023-05-31T14:43:38;32.40;18.30
4103;DHT22;2065;49.790;9.620;2023-05-31T14:46:06;32.20;19.20
4103;DHT22;2065;49.790;9.620;2023-05-31T14:48:33;31.90;19.30
4103;DHT22;2065;49.790;9.620;2023-05-31T14:51:00;31.70;18.70
4103;DHT22;2065;49.790;9.620;2023-05-31T14:53:27;31.90;18.90
4103;DHT22;2065;49.790;9.620;2023-05-31T14:55:54;32.00;18.90
4103;DHT22;2065;49.790;9.620;2023-05-31T14:58:21;32.00;18.20
4103;DHT22;2065;49.790;9.620;2023-05-31T15:00:49;32.10;18.40
4103;DHT22;2065;49.790;9.620;2023-05-31T15:03:17;31.90;18.20
4103;DHT22;2065;49.790;9.620;2023-05-31T15:05:44;31.80;18.70
4103;DHT22;2065;49.790;9.620;2023-05-31T15:08:11;31.80;19.90
4103;DHT22;2065;49.790;9.620;2023-05-31T15:10:38;31.90;19.40
4103;DHT22;2065;49.790;9.620;2023-05-31T15:13:05;31.90;18.80
4103;DHT22;2065;49.790;9.620;2023-05-31T15:15:32;32.00;18.60
4103;DHT22;2065;49.790;9.620;2023-05-31T15:17:59;31.80;19.30
4103;DHT22;2065;49.790;9.620;2023-05-31T15:20:27;31.40;19.30
4103;DHT22;2065;49.790;9.620;2023-05-31T15:22:54;31.50;20.70
4103;DHT22;2065;49.790;9.620;2023-05-31T15:25:21;31.70;19.80
4103;DHT22;2065;49.790;9.620;2023-05-31T15:27:48;31.70;19.20
4103;DHT22;2065;49.790;9.620;2023-05-31T15:30:15;31.60;19.60
4103;DHT22;2065;49.790;9.620;2023-05-31T15:32:41;31.60;20.40
4103;DHT22;2065;49.790;9.620;2023-05-31T15:35:09;31.50;19.20
4103;DHT22;2065;49.790;9.620;2023-05-31T15:37:37;31.60;19.60
4103;DHT22;2065;49.790;9.620;2023-05-31T15:40:05;31.80;19.50
4103;DHT22;2065;49.790;9.620;2023-05-31T15:42:32;31.90;19.90
4103;DHT22;2065;49.790;9.620;2023-05-31T15:44:59;31.80;19.90
4103;DHT22;2065;49.790;9.620;2023-05-31T15:47:26;31.80;19.20
4103;DHT22;2065;49.790;9.620;2023-05-31T15:49:53;31.60;18.90
4103;DHT22;2065;49.790;9.620;2023-05-31T15:52:20;31.40;19.70
4103;DHT22;2065;49.790;9.620;2023-05-31T15:54:49;31.50;19.90
4103;DHT22;2065;49.790;9.620;2023-05-31T15:57:16;31.40;19.80
4103;DHT22;2065;49.790;9.620;2023-05-31T15:59:42;31.20;19.20
4103;DHT22;2065;49.790;9.620;2023-05-31T16:02:09;31.10;19.40
4103;DHT22;2065;49.790;9.620;2023-05-31T16:04:37;31.10;19.50
4103;DHT22;2065;49.790;9.620;2023-05-31T16:07:05;31.20;19.70
4103;DHT22;2065;49.790;9.620;2023-05-31T16:09:32;31.40;19.00
4103;DHT22;2065;49.790;9.620;2023-05-31T16:12:01;31.70;19.90
4103;DHT22;2065;49.790;9.620;2023-05-31T16:14:28;31.90;19.20